createdAt,value
2019-06-10T00:00:42.045Z,19.50
2019-06-10T00:03:11.571Z,19.50
2019-06-10T00:05:41.543Z,19.40
2019-06-10T00:08:12.026Z,19.40
2019-06-10T00:10:42.058Z,19.40
2019-06-10T00:13:11.734Z,19.40
2019-06-10T00:15:41.414Z,19.50
2019-06-10T00:18:30.837Z,19.40
2019-06-10T00:20:41.107Z,19.40
2019-06-10T00:23:12.200Z,19.40
2019-06-10T00:25:41.428Z,19.40
2019-06-10T00:28:11.981Z,19.40
2019-06-10T00:30:41.171Z,19.40
2019-06-10T00:33:12.372Z,19.40
2019-06-10T00:35:41.257Z,19.30
2019-06-10T00:38:13.844Z,19.40
2019-06-10T00:40:41.410Z,19.30
2019-06-10T00:43:13.099Z,19.30
2019-06-10T00:45:41.179Z,19.30
2019-06-10T00:48:21.069Z,19.30
2019-06-10T00:50:41.479Z,19.10
2019-06-10T00:53:14.258Z,19.00
2019-06-10T00:55:41.545Z,18.70
2019-06-10T00:58:13.399Z,18.50
2019-06-10T01:00:41.305Z,18.30
2019-06-10T01:03:14.218Z,18.30
2019-06-10T01:05:42.025Z,18.20
2019-06-10T01:08:14.003Z,18.10
2019-06-10T01:10:43.953Z,18.10
2019-06-10T01:13:12.238Z,18.00
2019-06-10T01:15:41.959Z,18.10
2019-06-10T01:18:28.784Z,18.00
2019-06-10T01:20:41.391Z,17.90
2019-06-10T01:23:13.884Z,17.60
2019-06-10T01:25:42.261Z,17.50
2019-06-10T01:28:14.657Z,17.30
2019-06-10T01:30:41.372Z,17.20
2019-06-10T01:33:12.355Z,17.20
2019-06-10T01:35:41.568Z,17.10
2019-06-10T01:38:12.926Z,17.00
2019-06-10T01:40:42.113Z,17.00
2019-06-10T01:43:13.326Z,17.00
2019-06-10T01:45:41.874Z,17.00
2019-06-10T01:48:13.128Z,17.00
2019-06-10T01:50:40.812Z,17.00
2019-06-10T01:53:11.861Z,17.10
2019-06-10T01:55:41.494Z,17.10
2019-06-10T01:58:10.645Z,17.10
2019-06-10T02:00:47.184Z,17.20
2019-06-10T02:03:18.160Z,17.20
2019-06-10T02:05:45.842Z,17.20
2019-06-10T02:08:15.888Z,17.20
2019-06-10T02:10:44.453Z,17.20
2019-06-10T02:13:33.471Z,17.30
2019-06-10T02:16:03.583Z,17.40
2019-06-10T02:18:32.343Z,17.40
2019-06-10T02:21:01.272Z,17.40
2019-06-10T02:23:31.369Z,17.30
2019-06-10T02:26:01.530Z,17.30
2019-06-10T02:28:31.759Z,17.40
2019-06-10T02:31:03.188Z,17.30
2019-06-10T02:33:36.033Z,17.20
2019-06-10T02:36:04.106Z,16.90
2019-06-10T02:38:37.822Z,16.80
2019-06-10T02:41:04.144Z,16.80
2019-06-10T02:43:37.631Z,16.50
2019-06-10T02:46:04.942Z,16.60
2019-06-10T02:48:34.981Z,16.70
2019-06-10T02:51:06.014Z,16.70
2019-06-10T02:53:36.599Z,16.60
2019-06-10T02:56:06.841Z,16.40
2019-06-10T02:58:39.837Z,16.40
2019-06-10T03:01:08.598Z,16.40
2019-06-10T03:03:44.478Z,16.20
2019-06-10T03:06:08.804Z,15.80
2019-06-10T03:08:37.669Z,15.80
2019-06-10T03:11:06.187Z,15.80
2019-06-10T03:13:34.648Z,15.70
2019-06-10T03:16:04.714Z,15.60
2019-06-10T03:18:33.175Z,15.60
2019-06-10T03:21:02.604Z,15.60
2019-06-10T03:23:37.308Z,15.40
2019-06-10T03:26:05.771Z,15.50
2019-06-10T03:28:34.236Z,15.40
2019-06-10T03:31:05.545Z,15.40
2019-06-10T03:33:40.861Z,15.40
2019-06-10T03:36:03.433Z,15.30
2019-06-10T03:38:32.669Z,15.30
2019-06-10T03:41:03.348Z,15.30
2019-06-10T03:43:32.890Z,15.40
2019-06-10T03:46:03.018Z,15.40
2019-06-10T03:48:32.824Z,15.40
2019-06-10T03:51:03.394Z,15.50
2019-06-10T03:53:33.750Z,15.50
2019-06-10T03:56:02.274Z,15.50
2019-06-10T03:58:32.769Z,15.50
2019-06-10T04:01:03.171Z,15.40
2019-06-10T04:03:33.553Z,15.40
2019-06-10T04:06:02.410Z,15.40
2019-06-10T04:08:32.916Z,15.40
2019-06-10T04:11:03.008Z,15.40
2019-06-10T04:13:33.716Z,15.60
2019-06-10T04:16:02.550Z,15.50
2019-06-10T04:18:32.710Z,15.50
2019-06-10T04:21:02.371Z,15.60
2019-06-10T04:23:33.257Z,15.60
2019-06-10T04:26:02.299Z,15.60
2019-06-10T04:28:33.465Z,15.60
2019-06-10T04:31:02.549Z,15.60
2019-06-10T04:33:32.863Z,15.70
2019-06-10T04:36:02.860Z,15.90
2019-06-10T04:38:32.783Z,16.00
2019-06-10T04:41:03.407Z,16.80
2019-06-10T04:43:32.533Z,18.30
2019-06-10T04:46:02.415Z,19.70
2019-06-10T04:48:36.953Z,19.90
2019-06-10T04:51:05.413Z,18.90
2019-06-10T04:53:33.886Z,19.10
2019-06-10T04:56:02.946Z,19.60
2019-06-10T04:58:33.357Z,20.00
2019-06-10T05:01:03.197Z,21.30
2019-06-10T05:03:32.984Z,20.80
2019-06-10T05:06:03.257Z,19.80
2019-06-10T05:08:33.598Z,19.10
2019-06-10T05:11:03.692Z,18.30
2019-06-10T05:13:33.684Z,17.90
2019-06-10T05:16:03.703Z,17.60
2019-06-10T05:18:33.225Z,17.40
2019-06-10T05:21:02.925Z,17.40
2019-06-10T05:23:32.884Z,17.20
2019-06-10T05:26:02.900Z,17.20
2019-06-10T05:28:34.149Z,17.10
2019-06-10T05:31:03.038Z,17.00
2019-06-10T05:33:33.514Z,17.00
2019-06-10T05:36:02.501Z,16.80
2019-06-10T05:38:34.875Z,16.70
2019-06-10T05:41:03.001Z,16.80
2019-06-10T05:43:34.379Z,16.80
2019-06-10T05:46:03.018Z,16.90
2019-06-10T05:48:34.611Z,16.90
2019-06-10T05:51:06.349Z,16.70
2019-06-10T05:53:34.055Z,16.60
2019-06-10T05:56:02.585Z,16.50
2019-06-10T05:58:34.183Z,16.50
2019-06-10T06:01:02.708Z,16.50
2019-06-10T06:03:36.298Z,16.50
2019-06-10T06:06:03.141Z,16.50
2019-06-10T06:08:33.983Z,16.60
2019-06-10T06:11:03.296Z,16.50
2019-06-10T06:13:33.919Z,16.60
2019-06-10T06:16:03.302Z,16.70
2019-06-10T06:18:34.612Z,16.60
2019-06-10T06:21:19.966Z,16.40
2019-06-10T06:23:34.807Z,16.30
2019-06-10T06:26:03.888Z,16.20
2019-06-10T06:28:34.623Z,16.20
2019-06-10T06:31:03.458Z,16.30
2019-06-10T06:33:34.730Z,16.30
2019-06-10T06:36:03.452Z,16.20
2019-06-10T06:38:38.474Z,16.20
2019-06-10T06:41:07.118Z,16.10
2019-06-10T06:43:40.008Z,16.20
2019-06-10T06:46:05.776Z,16.20
2019-06-10T06:48:42.950Z,16.30
2019-06-10T06:51:12.719Z,16.20
2019-06-10T06:53:48.338Z,16.20
2019-06-10T06:56:12.599Z,16.30
2019-06-10T06:58:42.994Z,16.40
2019-06-10T07:01:14.365Z,16.50
2019-06-10T07:03:44.634Z,16.50
2019-06-10T07:06:13.334Z,16.50
2019-06-10T07:08:51.750Z,16.60
2019-06-10T07:11:14.663Z,16.70
2019-06-10T07:13:45.881Z,16.90
2019-06-10T07:16:14.658Z,17.10
2019-06-10T07:18:49.573Z,17.30
2019-06-10T07:21:15.235Z,17.60
2019-06-10T07:23:46.601Z,17.90
2019-06-10T07:26:13.868Z,18.10
2019-06-10T07:28:45.734Z,18.10
2019-06-10T07:31:23.640Z,18.20
2019-06-10T07:33:45.821Z,18.10
2019-06-10T07:36:13.338Z,17.80
2019-06-10T07:38:47.956Z,17.80
2019-06-10T07:41:12.705Z,17.80
2019-06-10T07:43:46.512Z,18.00
2019-06-10T07:46:13.435Z,18.00
2019-06-10T07:48:46.281Z,18.10
2019-06-10T07:51:15.874Z,18.30
2019-06-10T07:53:46.625Z,18.40
2019-06-10T07:56:14.555Z,18.30
2019-06-10T07:58:47.416Z,18.40
2019-06-10T08:01:13.447Z,18.50
2019-06-10T08:03:46.057Z,18.50
2019-06-10T08:06:18.120Z,18.60
2019-06-10T08:08:47.278Z,18.90
2019-06-10T08:11:15.946Z,19.40
2019-06-10T08:13:46.209Z,19.60
2019-06-10T08:16:14.612Z,19.60
2019-06-10T08:19:13.946Z,19.90
2019-06-10T08:21:13.325Z,20.30
2019-06-10T08:23:45.052Z,21.50
2019-06-10T08:26:12.686Z,22.40
2019-06-10T08:28:44.817Z,23.10
2019-06-10T08:31:12.853Z,22.50
2019-06-10T08:33:44.434Z,21.80
2019-06-10T08:36:13.652Z,21.90
2019-06-10T08:38:44.900Z,21.70
2019-06-10T08:41:12.360Z,22.20
2019-06-10T08:43:43.761Z,22.60
2019-06-10T08:46:13.123Z,22.50
2019-06-10T08:48:43.872Z,23.10
2019-06-10T08:51:12.491Z,23.10
2019-06-10T08:53:43.908Z,23.20
2019-06-10T08:56:13.058Z,23.30
2019-06-10T08:58:45.710Z,22.80
2019-06-10T09:01:13.265Z,22.80
2019-06-10T09:03:46.301Z,23.00
2019-06-10T09:06:13.221Z,22.50
2019-06-10T09:08:45.735Z,22.40
2019-06-10T09:11:12.948Z,22.10
2019-06-10T09:13:45.447Z,22.20
2019-06-10T09:16:18.525Z,22.30
2019-06-10T09:18:47.475Z,22.50
2019-06-10T09:21:13.731Z,22.50
2019-06-10T09:23:46.706Z,22.80
2019-06-10T09:26:12.764Z,23.00
2019-06-10T09:28:47.100Z,23.10
2019-06-10T09:31:14.002Z,23.30
2019-06-10T09:33:47.923Z,23.50
2019-06-10T09:36:12.692Z,23.80
2019-06-10T09:38:45.274Z,24.40
2019-06-10T09:41:14.151Z,24.70
2019-06-10T09:43:46.873Z,24.60
2019-06-10T09:46:12.761Z,23.90
2019-06-10T09:48:48.106Z,24.70
2019-06-10T09:51:12.677Z,25.20
2019-06-10T09:53:46.359Z,25.40
2019-06-10T09:56:12.483Z,24.60
2019-06-10T09:58:44.615Z,25.00
2019-06-10T10:01:13.362Z,25.50
2019-06-10T10:03:45.413Z,25.60
2019-06-10T10:06:15.699Z,26.30
2019-06-10T10:08:52.436Z,26.30
2019-06-10T10:11:17.754Z,25.70
2019-06-10T10:13:49.397Z,25.50
2019-06-10T10:16:16.520Z,25.90
2019-06-10T10:18:48.930Z,26.50
2019-06-10T10:21:15.280Z,26.30
2019-06-10T10:23:54.211Z,25.80
2019-06-10T10:26:14.238Z,25.50
2019-06-10T10:28:44.594Z,26.30
2019-06-10T10:31:13.208Z,26.20
2019-06-10T10:33:42.580Z,26.90
2019-06-10T10:36:14.036Z,26.60
2019-06-10T10:38:42.637Z,27.70
2019-06-10T10:41:13.300Z,28.00
2019-06-10T10:43:43.707Z,28.40
2019-06-10T10:46:13.846Z,27.70
2019-06-10T10:48:42.959Z,27.40
2019-06-10T10:51:13.062Z,26.90
2019-06-10T10:53:46.789Z,26.90
2019-06-10T10:56:13.331Z,26.70
2019-06-10T10:58:43.718Z,27.00
2019-06-10T11:01:15.001Z,27.20
2019-06-10T11:03:45.111Z,27.00
2019-06-10T11:06:13.279Z,26.90
2019-06-10T11:08:43.098Z,27.30
2019-06-10T11:11:13.607Z,28.30
2019-06-10T11:13:45.425Z,27.40
2019-06-10T11:16:14.488Z,27.80
2019-06-10T11:18:42.937Z,27.20
2019-06-10T11:21:13.339Z,27.00
2019-06-10T11:23:43.506Z,26.90
2019-06-10T11:26:12.960Z,27.30
2019-06-10T11:28:42.892Z,28.00
2019-06-10T11:31:14.014Z,28.00
2019-06-10T11:33:43.564Z,27.90
2019-06-10T11:36:13.441Z,28.10
2019-06-10T11:38:42.283Z,28.50
2019-06-10T11:41:13.418Z,28.50
2019-06-10T11:43:43.058Z,28.50
2019-06-10T11:46:13.693Z,28.50
2019-06-10T11:48:43.558Z,28.20
2019-06-10T11:51:13.081Z,28.90
2019-06-10T11:53:44.040Z,28.40
2019-06-10T11:56:13.079Z,28.00
2019-06-10T11:58:42.536Z,27.90
2019-06-10T12:01:12.935Z,27.90
2019-06-10T12:03:43.066Z,28.00
2019-06-10T12:06:13.588Z,28.10
2019-06-10T12:08:43.620Z,28.10
2019-06-10T12:11:12.758Z,28.40
2019-06-10T12:13:42.739Z,27.70
2019-06-10T12:17:05.771Z,27.40
2019-06-10T12:18:42.671Z,27.20
2019-06-10T12:21:13.023Z,27.50
2019-06-10T12:23:47.828Z,28.10
2019-06-10T12:26:16.326Z,28.50
2019-06-10T12:28:44.831Z,28.50
2019-06-10T12:31:13.851Z,28.20
2019-06-10T12:33:42.327Z,27.80
2019-06-10T12:36:12.774Z,27.60
2019-06-10T12:38:43.458Z,27.80
2019-06-10T12:41:13.791Z,27.80
2019-06-10T12:43:43.356Z,28.10
2019-06-10T12:46:12.760Z,28.40
2019-06-10T12:48:42.558Z,28.90
2019-06-10T12:51:13.449Z,29.00
2019-06-10T12:53:43.172Z,28.90
2019-06-10T12:56:14.905Z,28.90
2019-06-10T12:58:43.574Z,29.10
2019-06-10T13:01:12.390Z,28.90
2019-06-10T13:03:43.268Z,28.90
2019-06-10T13:06:12.911Z,28.60
2019-06-10T13:08:43.524Z,28.60
2019-06-10T13:11:14.544Z,28.70
2019-06-10T13:13:43.751Z,28.50
2019-06-10T13:16:14.036Z,28.00
2019-06-10T13:18:42.590Z,28.30
2019-06-10T13:21:16.522Z,28.00
2019-06-10T13:23:43.163Z,27.90
2019-06-10T13:26:15.883Z,27.90
2019-06-10T13:28:43.965Z,28.00
2019-06-10T13:31:11.745Z,28.10
2019-06-10T13:33:42.700Z,28.00
2019-06-10T13:36:13.070Z,28.60
2019-06-10T13:38:42.783Z,29.10
2019-06-10T13:41:11.639Z,29.30
2019-06-10T13:43:40.080Z,29.10
2019-06-10T13:46:10.454Z,29.10
2019-06-10T13:48:38.681Z,28.50
2019-06-10T13:51:10.227Z,28.90
2019-06-10T13:53:37.318Z,28.70
2019-06-10T13:56:28.774Z,28.80
2019-06-10T13:58:37.228Z,28.60
2019-06-10T14:01:11.575Z,28.80
2019-06-10T14:03:36.052Z,28.80
2019-06-10T14:06:26.317Z,28.50
2019-06-10T14:08:35.918Z,28.40
2019-06-10T14:11:07.398Z,28.80
2019-06-10T14:13:34.766Z,28.70
2019-06-10T14:16:03.603Z,28.70
2019-06-10T14:18:33.432Z,29.00
2019-06-10T14:21:05.243Z,29.30
2019-06-10T14:23:33.085Z,29.40
2019-06-10T14:26:04.177Z,29.40
2019-06-10T14:28:40.724Z,29.40
2019-06-10T14:31:05.145Z,29.60
2019-06-10T14:33:33.142Z,29.90
2019-06-10T14:36:04.982Z,30.10
2019-06-10T14:38:32.713Z,30.20
2019-06-10T14:41:03.423Z,29.60
2019-06-10T14:43:33.178Z,29.90
2019-06-10T14:46:02.121Z,29.90
2019-06-10T14:48:33.514Z,29.30
2019-06-10T14:51:03.017Z,29.30
2019-06-10T14:53:33.497Z,29.30
2019-06-10T14:56:03.775Z,29.40
2019-06-10T14:58:31.315Z,29.80
2019-06-10T15:00:59.798Z,29.80
2019-06-10T15:03:28.524Z,29.30
2019-06-10T15:05:57.001Z,29.30
2019-06-10T15:08:32.286Z,29.20
2019-06-10T15:11:00.950Z,28.60
2019-06-10T15:13:29.368Z,28.40
2019-06-10T15:15:57.844Z,28.40
2019-06-10T15:18:26.280Z,28.40
2019-06-10T15:20:54.835Z,28.60
2019-06-10T15:23:23.779Z,28.80
2019-06-10T15:25:56.528Z,28.70
2019-06-10T15:28:23.508Z,28.40
2019-06-10T15:30:52.731Z,28.20
2019-06-10T15:33:23.539Z,28.50
2019-06-10T15:35:53.312Z,28.60
2019-06-10T15:38:23.217Z,28.60
2019-06-10T15:40:53.616Z,28.10
2019-06-10T15:43:23.361Z,28.00
2019-06-10T15:45:53.030Z,28.40
2019-06-10T15:48:25.252Z,28.60
2019-06-10T15:50:52.292Z,28.30
2019-06-10T15:53:24.928Z,28.20
2019-06-10T15:56:14.533Z,27.90
2019-06-10T15:58:24.586Z,27.80
2019-06-10T16:00:53.460Z,27.90
2019-06-10T16:03:25.178Z,27.70
2019-06-10T16:05:53.049Z,27.80
2019-06-10T16:08:22.615Z,27.80
2019-06-10T16:10:52.501Z,27.70
2019-06-10T16:13:24.010Z,27.70
2019-06-10T16:15:53.307Z,27.80
2019-06-10T16:18:25.946Z,28.10
2019-06-10T16:20:52.708Z,28.30
2019-06-10T16:23:24.597Z,28.50
2019-06-10T16:25:53.397Z,28.70
2019-06-10T16:28:24.526Z,28.70
2019-06-10T16:30:53.590Z,28.80
2019-06-10T16:33:26.016Z,28.70
2019-06-10T16:35:52.711Z,28.90
2019-06-10T16:38:24.192Z,28.90
2019-06-10T16:40:53.722Z,28.80
2019-06-10T16:43:24.483Z,28.20
2019-06-10T16:45:52.672Z,28.00
2019-06-10T16:48:21.671Z,28.10
2019-06-10T16:50:53.996Z,28.00
2019-06-10T16:53:24.173Z,28.10
2019-06-10T16:55:52.748Z,28.00
2019-06-10T16:58:23.666Z,27.90
2019-06-10T17:00:51.127Z,28.00
2019-06-10T17:03:21.136Z,27.90
2019-06-10T17:05:49.773Z,27.90
2019-06-10T17:08:18.200Z,27.80
2019-06-10T17:10:46.668Z,27.70
2019-06-10T17:13:16.529Z,27.60
2019-06-10T17:15:44.998Z,27.60
2019-06-10T17:18:13.462Z,27.60
2019-06-10T17:20:42.992Z,27.60
2019-06-10T17:23:19.410Z,27.50
2019-06-10T17:25:48.457Z,27.40
2019-06-10T17:28:18.411Z,27.40
2019-06-10T17:30:47.235Z,27.40
2019-06-10T17:33:15.714Z,27.20
2019-06-10T17:35:44.154Z,27.10
2019-06-10T17:38:12.618Z,26.90
2019-06-10T17:40:41.110Z,26.80
2019-06-10T17:43:09.539Z,26.80
2019-06-10T17:45:38.036Z,26.70
2019-06-10T17:48:06.482Z,26.70
2019-06-10T17:50:34.942Z,26.70
2019-06-10T17:53:05.374Z,26.60
2019-06-10T17:55:35.624Z,26.50
2019-06-10T17:58:04.523Z,26.50
2019-06-10T18:00:36.097Z,26.40
2019-06-10T18:03:03.690Z,26.40
2019-06-10T18:05:33.299Z,26.30
2019-06-10T18:08:04.033Z,26.20
2019-06-10T18:10:35.682Z,26.10
2019-06-10T18:13:13.039Z,25.90
2019-06-10T18:15:35.435Z,25.80
2019-06-10T18:18:03.601Z,25.80
2019-06-10T18:20:34.018Z,25.60
2019-06-10T18:23:02.862Z,25.60
2019-06-10T18:25:33.878Z,25.50
2019-06-10T18:28:02.821Z,25.30
2019-06-10T18:30:34.645Z,25.40
2019-06-10T18:33:02.963Z,25.30
2019-06-10T18:35:34.386Z,25.20
2019-06-10T18:38:02.339Z,25.20
2019-06-10T18:40:31.645Z,25.10
2019-06-10T18:43:02.758Z,25.00
2019-06-10T18:45:33.341Z,24.90
2019-06-10T18:48:01.647Z,24.80
2019-06-10T18:50:32.898Z,24.80
2019-06-10T18:53:04.190Z,24.70
2019-06-10T18:55:35.921Z,24.70
2019-06-10T18:58:03.031Z,24.50
2019-06-10T19:00:51.233Z,24.50
2019-06-10T19:03:10.393Z,24.50
2019-06-10T19:05:33.598Z,24.40
2019-06-10T19:08:02.487Z,24.30
2019-06-10T19:10:33.966Z,24.20
2019-06-10T19:13:02.464Z,24.20
2019-06-10T19:15:31.849Z,24.10
2019-06-10T19:18:02.945Z,24.10
2019-06-10T19:20:33.619Z,24.00
2019-06-10T19:23:02.512Z,24.00
2019-06-10T19:25:33.828Z,23.80
2019-06-10T19:28:03.314Z,23.80
2019-06-10T19:30:36.834Z,23.70
2019-06-10T19:33:02.673Z,23.60
2019-06-10T19:35:33.568Z,23.50
2019-06-10T19:38:02.287Z,23.60
2019-06-10T19:40:33.457Z,23.50
2019-06-10T19:43:03.258Z,23.30
2019-06-10T19:45:32.174Z,23.20
2019-06-10T19:48:03.172Z,23.20
2019-06-10T19:50:33.088Z,23.10
2019-06-10T19:53:02.615Z,23.10
2019-06-10T19:55:32.462Z,23.00
2019-06-10T19:58:03.653Z,23.00
2019-06-10T20:00:33.165Z,22.90
2019-06-10T20:03:02.910Z,23.10
2019-06-10T20:05:32.577Z,23.10
2019-06-10T20:08:02.981Z,23.00
2019-06-10T20:10:32.418Z,23.10
2019-06-10T20:13:01.035Z,23.00
2019-06-10T20:15:29.595Z,22.90
2019-06-10T20:17:58.622Z,23.00
2019-06-10T20:20:28.407Z,23.00
2019-06-10T20:23:03.039Z,22.80
2019-06-10T20:25:32.857Z,22.80
2019-06-10T20:28:02.859Z,22.80
2019-06-10T20:30:33.269Z,22.80
2019-06-10T20:33:03.337Z,22.80
2019-06-10T20:35:34.617Z,22.80
2019-06-10T20:38:05.083Z,22.80
2019-06-10T20:40:35.543Z,22.80
2019-06-10T20:43:07.811Z,22.90
2019-06-10T20:45:37.671Z,23.00
2019-06-10T20:48:07.189Z,23.00
2019-06-10T20:50:35.634Z,22.90
2019-06-10T20:53:14.686Z,22.90
2019-06-10T20:55:41.262Z,22.80
2019-06-10T20:58:09.293Z,22.80
2019-06-10T21:00:45.608Z,22.80
2019-06-10T21:03:10.280Z,22.70
2019-06-10T21:05:39.701Z,22.70
2019-06-10T21:08:09.113Z,22.60
2019-06-10T21:10:39.646Z,22.50
2019-06-10T21:13:09.060Z,22.40
2019-06-10T21:15:37.912Z,22.50
2019-06-10T21:18:06.563Z,22.40
2019-06-10T21:20:35.024Z,22.40
2019-06-10T21:23:03.643Z,22.30
2019-06-10T21:25:32.627Z,22.10
2019-06-10T21:28:03.355Z,21.80
2019-06-10T21:30:41.192Z,21.60
2019-06-10T21:33:03.600Z,21.30
2019-06-10T21:35:34.466Z,21.20
2019-06-10T21:38:03.191Z,21.10
2019-06-10T21:40:33.086Z,21.00
2019-06-10T21:43:02.958Z,20.90
2019-06-10T21:45:32.534Z,20.80
2019-06-10T21:48:02.395Z,20.70
2019-06-10T21:50:33.377Z,20.60
2019-06-10T21:53:02.952Z,20.60
2019-06-10T21:55:33.047Z,20.60
2019-06-10T21:58:03.706Z,20.50
2019-06-10T22:00:34.329Z,20.50
2019-06-10T22:03:03.040Z,20.40
2019-06-10T22:05:33.174Z,20.30
2019-06-10T22:08:03.216Z,20.30
2019-06-10T22:10:33.568Z,20.30
2019-06-10T22:13:03.208Z,20.30
2019-06-10T22:15:33.302Z,20.20
2019-06-10T22:18:02.316Z,20.20
2019-06-10T22:20:32.506Z,20.30
2019-06-10T22:23:02.618Z,20.20
2019-06-10T22:25:32.834Z,20.30
2019-06-10T22:28:02.702Z,20.30
2019-06-10T22:30:32.169Z,20.20
2019-06-10T22:33:03.059Z,20.20
2019-06-10T22:35:31.066Z,20.20
2019-06-10T22:37:59.574Z,20.20
2019-06-10T22:40:29.540Z,20.20
2019-06-10T22:42:57.994Z,20.20
2019-06-10T22:45:26.451Z,20.10
2019-06-10T22:47:55.667Z,20.20
2019-06-10T22:50:25.326Z,20.10
2019-06-10T22:52:54.578Z,20.10
2019-06-10T22:55:23.952Z,20.10
2019-06-10T22:57:57.257Z,20.10
2019-06-10T23:00:23.356Z,20.10
2019-06-10T23:02:56.494Z,20.10
2019-06-10T23:05:24.958Z,20.10
2019-06-10T23:07:55.861Z,20.20
2019-06-10T23:10:23.642Z,20.20
2019-06-10T23:12:54.945Z,20.10
2019-06-10T23:15:23.675Z,20.00
2019-06-10T23:17:55.079Z,19.80
2019-06-10T23:20:22.357Z,19.70
2019-06-10T23:22:57.318Z,19.60
2019-06-10T23:25:26.021Z,19.60
2019-06-10T23:27:56.654Z,19.60
2019-06-10T23:30:24.754Z,19.60
2019-06-10T23:32:55.832Z,19.60
2019-06-10T23:35:23.424Z,19.50
2019-06-10T23:37:55.046Z,19.50
2019-06-10T23:40:23.481Z,19.50
2019-06-10T23:42:53.106Z,19.50
2019-06-10T23:45:22.449Z,19.50
2019-06-10T23:47:52.970Z,19.50
2019-06-10T23:50:22.531Z,19.50
2019-06-10T23:52:53.942Z,19.50
2019-06-10T23:55:22.794Z,19.50
2019-06-10T23:57:53.061Z,19.50
